createdAt,value
2019-03-08T00:00:05.823Z,23.80
2019-03-08T00:02:34.287Z,23.80
2019-03-08T00:05:02.809Z,23.80
2019-03-08T00:07:31.272Z,23.80
2019-03-08T00:09:59.800Z,23.90
2019-03-08T00:12:28.252Z,23.90
2019-03-08T00:14:56.744Z,23.80
2019-03-08T00:17:25.266Z,23.80
2019-03-08T00:19:53.723Z,23.90
2019-03-08T00:22:32.525Z,23.80
2019-03-08T00:25:01.015Z,23.80
2019-03-08T00:27:29.487Z,23.80
2019-03-08T00:29:58.027Z,23.80
2019-03-08T00:32:26.635Z,23.80
2019-03-08T00:34:55.107Z,23.80
2019-03-08T00:37:23.599Z,23.80
2019-03-08T00:39:52.116Z,23.80
2019-03-08T00:42:20.677Z,23.80
2019-03-08T00:44:49.136Z,23.80
2019-03-08T00:47:17.845Z,23.80
2019-03-08T00:49:46.380Z,23.80
2019-03-08T00:52:14.840Z,23.80
2019-03-08T00:54:43.366Z,23.80
2019-03-08T00:57:11.828Z,23.80
2019-03-08T00:59:40.412Z,23.90
2019-03-08T01:02:09.353Z,23.90
2019-03-08T01:04:37.876Z,23.80
2019-03-08T01:07:07.245Z,23.80
2019-03-08T01:09:35.722Z,23.80
2019-03-08T01:12:04.205Z,23.80
2019-03-08T01:14:32.681Z,23.80
2019-03-08T01:17:01.164Z,23.80
2019-03-08T01:19:29.683Z,23.80
2019-03-08T01:21:58.169Z,23.80
2019-03-08T01:24:30.574Z,23.90
2019-03-08T01:26:59.111Z,23.90
2019-03-08T01:29:27.601Z,23.90
2019-03-08T01:31:56.083Z,23.90
2019-03-08T01:34:24.903Z,23.90
2019-03-08T01:36:53.364Z,23.90
2019-03-08T01:39:21.914Z,23.90
2019-03-08T01:41:50.445Z,23.90
2019-03-08T01:44:18.999Z,23.90
2019-03-08T01:46:47.469Z,23.90
2019-03-08T01:49:16.223Z,23.90
2019-03-08T01:51:44.683Z,23.90
2019-03-08T01:54:13.139Z,23.90
2019-03-08T01:56:42.894Z,23.90
2019-03-08T01:59:11.802Z,23.90
2019-03-08T02:01:40.276Z,23.90
2019-03-08T02:04:09.053Z,23.90
2019-03-08T02:06:37.522Z,23.90
2019-03-08T02:09:06.099Z,23.90
2019-03-08T02:11:34.589Z,23.90
2019-03-08T02:14:03.055Z,23.90
2019-03-08T02:16:31.575Z,23.90
2019-03-08T02:19:00.579Z,23.90
2019-03-08T02:21:29.102Z,23.90
2019-03-08T02:23:57.586Z,23.90
2019-03-08T02:26:26.063Z,23.90
2019-03-08T02:28:54.615Z,23.90
2019-03-08T02:31:23.132Z,23.90
2019-03-08T02:33:52.091Z,23.90
2019-03-08T02:36:20.607Z,23.90
2019-03-08T02:38:49.469Z,23.90
2019-03-08T02:41:17.984Z,23.90
2019-03-08T02:43:46.425Z,23.90
2019-03-08T02:46:14.890Z,23.90
2019-03-08T02:48:43.456Z,23.90
2019-03-08T02:51:11.947Z,23.90
2019-03-08T02:56:08.700Z,23.90
2019-03-08T02:58:37.298Z,23.80
2019-03-08T03:01:06.205Z,23.90
2019-03-08T03:03:34.889Z,23.90
2019-03-08T03:08:31.720Z,23.80
2019-03-08T03:11:00.237Z,23.80
2019-03-08T03:16:00.073Z,23.80
2019-03-08T03:20:56.973Z,23.80
2019-03-08T03:23:25.497Z,23.80
2019-03-08T03:25:53.951Z,23.80
2019-03-08T03:28:22.487Z,23.90
2019-03-08T03:55:34.203Z,23.90
2019-03-08T03:58:02.730Z,23.80
2019-03-08T04:00:31.200Z,23.80
2019-03-08T04:02:59.761Z,23.70
2019-03-08T04:05:28.290Z,23.70
2019-03-08T04:07:56.792Z,23.70
2019-03-08T04:10:25.260Z,23.60
2019-03-08T04:12:53.763Z,23.60
2019-03-08T04:15:22.400Z,23.60
2019-03-08T04:17:50.874Z,23.60
2019-03-08T04:20:20.391Z,23.50
2019-03-08T04:22:49.088Z,23.50
2019-03-08T04:25:20.430Z,23.50
2019-03-08T04:27:48.954Z,23.40
2019-03-08T04:30:21.334Z,23.50
2019-03-08T04:32:49.809Z,23.50
2019-03-08T04:35:18.289Z,23.50
2019-03-08T04:37:46.775Z,23.40
2019-03-08T04:40:15.313Z,23.40
2019-03-08T04:42:43.785Z,23.40
2019-03-08T04:45:15.060Z,23.40
2019-03-08T04:47:43.532Z,23.40
2019-03-08T04:50:13.241Z,23.40
2019-03-08T04:52:41.735Z,23.40
2019-03-08T04:55:13.506Z,23.30
2019-03-08T04:57:41.970Z,23.30
2019-03-08T05:00:15.439Z,23.30
2019-03-08T05:02:43.976Z,23.30
2019-03-08T05:05:12.491Z,23.30
2019-03-08T05:07:40.964Z,23.30
2019-03-08T05:10:12.548Z,23.30
2019-03-08T05:12:41.524Z,23.30
2019-03-08T05:15:11.150Z,23.30
2019-03-08T05:17:39.603Z,23.30
2019-03-08T05:20:10.125Z,23.30
2019-03-08T05:22:38.601Z,23.30
2019-03-08T05:25:09.505Z,23.30
2019-03-08T05:27:37.994Z,23.20
2019-03-08T05:30:09.918Z,23.20
2019-03-08T05:32:38.404Z,23.20
2019-03-08T05:35:08.671Z,23.20
2019-03-08T05:37:37.187Z,23.20
2019-03-08T05:40:10.625Z,23.20
2019-03-08T05:42:39.151Z,23.20
2019-03-08T05:45:11.652Z,23.20
2019-03-08T05:47:40.172Z,23.20
2019-03-08T05:50:12.516Z,23.20
2019-03-08T05:52:41.788Z,23.20
2019-03-08T05:55:11.340Z,23.20
2019-03-08T05:57:39.811Z,23.20
2019-03-08T06:00:18.093Z,23.20
2019-03-08T06:02:46.564Z,23.20
2019-03-08T06:05:15.076Z,23.20
2019-03-08T06:10:29.101Z,23.20
2019-03-08T06:12:58.113Z,23.20
2019-03-08T06:15:26.732Z,23.20
2019-03-08T06:17:56.469Z,23.20
2019-03-08T06:20:25.332Z,23.20
2019-03-08T06:22:53.795Z,23.20
2019-03-08T06:25:22.402Z,23.20
2019-03-08T06:27:50.868Z,23.20
2019-03-08T06:30:19.399Z,23.20
2019-03-08T06:32:47.955Z,23.20
2019-03-08T06:35:16.433Z,23.20
2019-03-08T06:37:44.904Z,23.20
2019-03-08T06:40:14.060Z,23.20
2019-03-08T06:42:42.606Z,23.20
2019-03-08T06:45:13.808Z,23.20
2019-03-08T06:47:43.282Z,23.20
2019-03-08T06:52:40.768Z,23.20
2019-03-08T06:55:11.908Z,23.20
2019-03-08T06:57:40.513Z,23.20
2019-03-08T07:00:16.951Z,23.20
2019-03-08T07:02:45.596Z,23.20
2019-03-08T07:05:14.105Z,23.20
2019-03-08T07:07:42.682Z,23.20
2019-03-08T07:10:11.495Z,23.20
2019-03-08T07:12:40.015Z,23.20
2019-03-08T07:15:08.491Z,23.20
2019-03-08T07:17:37.885Z,23.30
2019-03-08T07:20:09.340Z,23.20
2019-03-08T07:22:45.343Z,23.20
2019-03-08T07:25:31.954Z,23.20
2019-03-08T07:28:02.191Z,23.20
2019-03-08T07:30:41.306Z,23.30
2019-03-08T07:33:20.159Z,23.30
2019-03-08T07:36:08.692Z,23.30
2019-03-08T07:38:38.904Z,23.30
2019-03-08T07:41:14.729Z,23.30
2019-03-08T07:44:01.529Z,23.20
2019-03-08T07:46:34.591Z,23.20
2019-03-08T07:49:04.770Z,23.30
2019-03-08T07:51:40.729Z,23.20
2019-03-08T07:54:11.496Z,23.20
2019-03-08T07:56:41.623Z,23.30
2019-03-08T07:59:23.981Z,23.30
2019-03-08T08:01:59.818Z,23.30
2019-03-08T08:04:36.192Z,23.30
2019-03-08T08:07:12.229Z,23.30
2019-03-08T08:09:42.335Z,23.30
2019-03-08T08:12:15.453Z,23.30
2019-03-08T08:15:00.958Z,23.30
2019-03-08T08:17:49.640Z,23.30
2019-03-08T08:20:31.768Z,23.30
2019-03-08T08:23:11.156Z,23.30
2019-03-08T08:25:57.588Z,23.30
2019-03-08T08:28:27.713Z,23.30
2019-03-08T08:31:15.912Z,23.30
2019-03-08T08:33:55.068Z,23.30
2019-03-08T08:36:25.558Z,23.30
2019-03-08T08:39:07.920Z,23.30
2019-03-08T08:41:40.952Z,23.30
2019-03-08T08:44:11.052Z,23.40
2019-03-08T08:46:58.231Z,23.30
2019-03-08T08:49:37.376Z,23.40
2019-03-08T08:52:25.833Z,23.40
2019-03-08T08:54:55.951Z,23.40
2019-03-08T08:57:34.992Z,23.30
2019-03-08T09:00:11.547Z,23.30
2019-03-08T09:02:47.861Z,23.40
2019-03-08T09:05:23.773Z,23.30
2019-03-08T09:08:09.894Z,23.30
2019-03-08T09:10:46.287Z,23.40
2019-03-08T09:13:22.301Z,23.30
2019-03-08T09:16:08.462Z,23.40
2019-03-08T09:18:44.505Z,23.40
2019-03-08T09:21:23.741Z,23.40
2019-03-08T09:24:12.226Z,23.30
2019-03-08T09:26:45.604Z,23.40
2019-03-08T09:29:19.119Z,23.40
2019-03-08T09:31:49.236Z,23.40
2019-03-08T09:34:19.440Z,23.40
2019-03-08T09:36:49.563Z,23.40
2019-03-08T09:39:29.308Z,23.40
2019-03-08T09:41:59.511Z,23.40
2019-03-08T09:44:44.951Z,23.40
2019-03-08T09:47:15.811Z,23.40
2019-03-08T09:49:48.528Z,23.40
2019-03-08T09:52:18.652Z,23.40
2019-03-08T09:55:00.841Z,23.40
2019-03-08T09:57:40.711Z,23.50
2019-03-08T10:00:28.319Z,23.50
2019-03-08T10:03:01.542Z,23.50
2019-03-08T10:05:37.881Z,23.50
2019-03-08T10:08:10.743Z,23.50
2019-03-08T10:10:43.571Z,23.50
2019-03-08T10:13:29.882Z,23.50
2019-03-08T10:16:00.000Z,23.50
2019-03-08T10:18:30.111Z,23.50
2019-03-08T10:21:16.748Z,23.50
2019-03-08T10:23:59.337Z,23.50
2019-03-08T10:26:29.536Z,23.50
2019-03-08T10:29:05.535Z,23.60
2019-03-08T10:31:50.963Z,23.50
2019-03-08T10:34:27.165Z,23.60
2019-03-08T10:37:06.147Z,23.60
2019-03-08T10:39:45.287Z,23.60
2019-03-08T10:42:17.888Z,23.60
2019-03-08T10:45:04.594Z,23.60
2019-03-08T10:47:55.999Z,23.70
2019-03-08T10:50:24.276Z,23.60
2019-03-08T10:53:03.530Z,23.70
2019-03-08T10:55:39.625Z,23.70
2019-03-08T10:58:26.371Z,23.70
2019-03-08T11:01:05.471Z,23.70
2019-03-08T11:03:41.428Z,23.70
2019-03-08T11:11:23.843Z,23.80
2019-03-08T11:14:05.610Z,23.80
2019-03-08T11:16:38.504Z,23.80
2019-03-08T11:19:09.133Z,23.90
2019-03-08T11:21:51.483Z,23.90
2019-03-08T11:24:30.304Z,23.90
2019-03-08T11:27:15.402Z,23.90
2019-03-08T11:29:57.616Z,24.00
2019-03-08T11:32:44.180Z,23.90
2019-03-08T11:35:16.859Z,24.00
2019-03-08T11:37:51.674Z,24.00
2019-03-08T11:40:36.997Z,24.00
2019-03-08T11:43:19.032Z,24.00
2019-03-08T11:45:49.129Z,24.00
2019-03-08T11:48:37.670Z,24.10
2019-03-08T11:51:24.215Z,24.00
